Data for 09/21/2017

Time Sea-Level Adjusted Pressure Absolute Pressure Temperature Relative Humidity Dew Point   
(mb) (inHg) (mb) (inHg) (C) (F) (%) (C) (F)
00:05 1010 29.83 840 24.81 5.2 41.4 85 3 37.3
00:10 1010 29.83 840 24.81 5.2 41.3 85 2.9 37.2
00:15 1010 29.83 840 24.81 5.2 41.3 85 2.9 37.2
00:20 1010 29.83 840 24.81 5.2 41.4 85 2.9 37.3
00:25 1010 29.83 840 24.81 5.2 41.3 84 2.8 37
00:30 1010 29.83 840 24.81 5.2 41.4 84 2.7 36.9
00:35 1010 29.83 840 24.81 5.2 41.4 82 2.3 36.2
00:40 1010 29.83 840 24.81 5.3 41.5 81 2.3 36.1
00:45 1011 29.85 840 24.81 5.4 41.7 80 2.2 36
00:50 1010 29.83 840 24.81 5.4 41.7 82 2.6 36.7
00:55 1010 29.83 839 24.78 5.3 41.6 84 2.8 37.1
01:00 1011 29.85 840 24.81 5.2 41.3 85 2.9 37.3
01:05 1011 29.85 840 24.81 4.9 40.9 87 2.9 37.2
01:10 1010 29.83 840 24.81 4.9 40.7 86 2.8 37
01:15 1011 29.85 840 24.81 4.9 40.9 86 2.7 36.9
01:20 1011 29.85 840 24.81 5 40.9 85 2.7 36.9
01:25 1010 29.83 840 24.81 4.9 40.8 85 2.5 36.6
01:30 1010 29.83 840 24.81 4.9 40.8 85 2.5 36.6
01:35 1010 29.83 840 24.81 4.8 40.7 85 2.5 36.6
01:40 1011 29.85 840 24.81 4.8 40.7 85 2.5 36.4
01:45 1010 29.83 840 24.81 5 40.9 83 2.4 36.3
01:50 1010 29.83 840 24.81 5 41 83 2.4 36.3
01:55 1010 29.83 840 24.81 5 41 83 2.4 36.3
02:00 1010 29.83 840 24.81 5 41 83 2.4 36.4
02:05 1010 29.83 840 24.81 4.9 40.9 84 2.4 36.3
02:10 1010 29.83 840 24.81 4.9 40.9 82 2.2 35.9
02:15 1010 29.83 840 24.81 5 41 81 2.1 35.8
02:20 1010 29.83 839 24.78 5 41 81 2 35.5
02:25 1010 29.83 839 24.78 5 40.9 82 2.1 35.8
02:30 1010 29.83 839 24.78 4.8 40.7 83 2.2 35.9
02:35 1010 29.83 839 24.78 4.8 40.6 83 2 35.7
02:40 1010 29.83 839 24.78 4.8 40.6 82 2 35.6
02:45 1010 29.83 839 24.78 4.9 40.9 81 2 35.6
02:50 1010 29.83 840 24.81 5 41 81 2 35.6
02:55 1010 29.83 840 24.81 5.1 41.2 81 2.1 35.7
03:00 1010 29.83 840 24.81 5.1 41.2 80 1.9 35.5
03:05 1010 29.83 840 24.81 5.2 41.4 79 1.8 35.2
03:10 1010 29.83 840 24.81 5.3 41.5 78 1.8 35.2
03:15 1010 29.83 840 24.81 5.1 41.2 79 1.8 35.3
03:20 1011 29.85 840 24.81 4.9 40.9 82 2.1 35.8
03:25 1010 29.83 840 24.81 4.7 40.5 83 2.1 35.8
03:30 1011 29.85 840 24.81 4.6 40.3 84 2.1 35.8
03:35 1011 29.85 840 24.81 4.6 40.2 83 2 35.6
03:40 1011 29.85 840 24.81 4.6 40.2 82 1.8 35.2
03:45 1011 29.85 840 24.81 4.7 40.4 82 1.8 35.3
03:50 1011 29.85 840 24.81 4.7 40.4 82 1.9 35.3
03:55 1011 29.85 840 24.81 4.7 40.5 82 1.9 35.5
04:00 1011 29.85 840 24.81 4.7 40.4 81 1.7 35.1
04:05 1011 29.85 840 24.81 4.6 40.3 82 1.8 35.3
04:10 1011 29.85 840 24.81 4.6 40.2 81 1.6 34.8
04:15 1011 29.85 840 24.81 4.6 40.2 80 1.4 34.4
04:20 1011 29.85 840 24.81 4.6 40.3 80 1.5 34.7
04:25 1011 29.85 840 24.81 4.6 40.3 80 1.5 34.7
04:30 1011 29.85 840 24.81 4.6 40.3 80 1.5 34.7
04:35 1011 29.85 840 24.81 4.6 40.4 80 1.4 34.5
04:40 1011 29.85 840 24.81 4.6 40.4 78 1.1 34
04:45 1011 29.85 840 24.81 4.7 40.4 81 1.7 35
04:50 1011 29.85 840 24.81 4.5 40.2 82 1.8 35.2
04:55 1011 29.85 840 24.81 4.4 39.9 83 1.7 35
05:00 1011 29.85 840 24.81 4.3 39.8 84 1.8 35.3
05:05 1011 29.85 840 24.81 4.4 39.9 83 1.8 35.3
05:10 1011 29.85 840 24.81 4.6 40.2 81 1.5 34.8
05:15 1011 29.85 840 24.81 4.7 40.4 77 1.1 33.9
05:20 1011 29.85 840 24.81 4.8 40.6 79 1.5 34.7
05:25 1011 29.85 840 24.81 4.9 40.9 79 1.5 34.8
05:30 1011 29.85 840 24.81 5 41 78 1.4 34.6
05:35 1011 29.85 840 24.81 5.1 41.2 79 1.7 35
05:40 1011 29.85 840 24.81 5.1 41.2 79 1.7 35.1
05:45 1011 29.85 840 24.81 5.1 41.2 79 1.7 35.1
05:50 1011 29.85 840 24.81 5.1 41.1 81 2 35.6
05:55 1011 29.85 840 24.81 4.9 40.8 83 2.2 35.9
06:00 1011 29.85 840 24.81 4.8 40.6 83 2.2 35.9
06:05 1011 29.85 840 24.81 4.8 40.6 83 2.2 35.9
06:10 1011 29.85 840 24.81 4.8 40.6 83 2.2 35.9
06:15 1011 29.85 841 24.83 4.8 40.6 83 2.1 35.8
06:20 1011 29.85 841 24.83 4.9 40.8 82 2.2 35.9
06:25 1012 29.88 841 24.83 4.9 40.9 82 2.2 35.9
06:30 1012 29.88 841 24.83 5 40.9 82 2.1 35.8
06:35 1012 29.88 841 24.83 5 40.9 82 2.1 35.7
06:40 1012 29.88 841 24.83 5 40.9 82 2.2 36
06:45 1012 29.88 841 24.83 5 41 83 2.3 36.2
06:50 1012 29.88 841 24.83 5 41.1 82 2.2 36
06:55 1012 29.88 841 24.83 5 41.1 81 2.1 35.8
07:00 1012 29.88 841 24.83 5.1 41.1 81 2.1 35.8
07:05 1012 29.88 841 24.83 5 41 83 2.3 36.1
07:10 1012 29.88 841 24.83 5 41 81 2 35.5
07:15 1012 29.88 841 24.83 5 41 81 2.1 35.7
07:20 1012 29.88 841 24.83 5 41 80 1.8 35.3
07:25 1012 29.88 841 24.83 5 41 79 1.6 34.9
07:30 1012 29.88 841 24.83 4.9 40.9 79 1.6 34.9
07:35 1012 29.88 841 24.83 4.9 40.9 79 1.6 34.8
07:40 1012 29.88 841 24.83 4.9 40.7 79 1.6 34.8
07:45 1012 29.88 841 24.83 4.7 40.5 80 1.6 34.9
07:50 1012 29.88 841 24.83 4.7 40.4 79 1.3 34.4
07:55 1012 29.88 841 24.83 4.6 40.3 78 1.1 34
08:00 1012 29.88 842 24.86 4.5 40.1 78 1 33.8
08:05 1012 29.88 842 24.86 4.7 40.4 78 1.1 34.1
08:10 1012 29.88 842 24.86 4.8 40.6 76 0.9 33.6
08:15 1013 29.91 842 24.86 4.8 40.7 74 0.7 33.2
08:20 1013 29.91 842 24.86 4.8 40.6 77 1 33.8
08:25 1012 29.88 842 24.86 4.7 40.4 77 1 33.9
08:30 1012 29.88 842 24.86 4.4 40 77 0.8 33.4
08:35 1012 29.88 841 24.83 4.1 39.4 80 0.9 33.6
08:40 1012 29.88 842 24.86 4.1 39.4 80 1.1 33.9
08:45 1012 29.88 841 24.83 4.2 39.5 79 0.8 33.5
08:50 1012 29.88 842 24.86 4.1 39.4 80 1 33.8
08:55 1012 29.88 841 24.83 4.1 39.4 78 0.6 33.1
09:00 1012 29.88 842 24.86 4.2 39.5 78 0.7 33.2
09:05 1012 29.88 842 24.86 4.3 39.7 77 0.5 33
09:10 1012 29.88 842 24.86 4.4 39.9 77 0.8 33.5
09:15 1012 29.88 842 24.86 4.5 40.2 76 0.7 33.3
09:20 1012 29.88 842 24.86 4.5 40.1 77 0.9 33.6
09:25 1012 29.88 842 24.86 4.5 40.1 75 0.4 32.7
09:30 1013 29.91 842 24.86 4.5 40.2 76 0.7 33.2
09:35 1013 29.91 842 24.86 4.6 40.3 76 0.8 33.4
09:40 1013 29.91 842 24.86 4.7 40.5 76 0.9 33.6
09:45 1013 29.91 842 24.86 4.8 40.6 76 0.8 33.5
09:50 1013 29.91 842 24.86 4.9 40.8 73 0.4 32.8
09:55 1013 29.91 842 24.86 5.1 41.1 74 0.8 33.4
10:00 1013 29.91 842 24.86 5.1 41.2 73 0.7 33.2
10:05 1013 29.91 842 24.86 5.3 41.6 75 1.3 34.3
10:10 1013 29.91 842 24.86 5.6 42 71 0.7 33.2
10:15 1013 29.91 842 24.86 5.6 42.1 70 0.6 33.1
10:20 1013 29.91 842 24.86 5.7 42.2 70 0.7 33.2
10:25 1013 29.91 842 24.86 5.7 42.3 70 0.7 33.2
10:30 1013 29.91 842 24.86 5.8 42.4 70 0.8 33.4
10:35 1013 29.91 842 24.86 5.7 42.2 73 1.3 34.4
10:40 1013 29.91 842 24.86 5.5 42 74 1.2 34.2
10:45 1013 29.91 842 24.86 5.4 41.6 76 1.5 34.8
10:50 1013 29.91 842 24.86 5.5 42 77 1.8 35.2
10:55 1013 29.91 842 24.86 5.7 42.2 74 1.4 34.6
11:00 1013 29.91 842 24.86 5.7 42.3 75 1.6 34.8
11:05 1013 29.91 842 24.86 6 42.9 70 1 33.7
11:10 1013 29.91 842 24.86 5.8 42.5 74 1.5 34.8
11:15 1013 29.91 842 24.86 5.9 42.6 70 0.9 33.7
11:20 1013 29.91 842 24.86 6 42.8 72 1.3 34.3
11:25 1013 29.91 842 24.86 6.3 43.3 72 1.7 35.1
11:30 1013 29.91 842 24.86 6.8 44.3 66 1 33.9
11:35 1013 29.91 842 24.86 7.1 44.7 65 0.9 33.6
11:40 1013 29.91 842 24.86 7.3 45.1 64 0.9 33.7
11:45 1013 29.91 842 24.86 7.3 45.2 68 1.8 35.2
11:50 1013 29.91 842 24.86 7.3 45.2 63 0.8 33.4
11:55 1013 29.91 842 24.86 6.8 44.3 68 1.4 34.6
12:00 1013 29.91 842 24.86 6.5 43.8 68 1 33.8
12:05 1013 29.91 842 24.86 6 42.9 69 0.8 33.5
12:10 1013 29.91 842 24.86 6.3 43.3 64 -0 32
12:15 1013 29.91 842 24.86 6.2 43.2 64 -0 32
12:20 1013 29.91 842 24.86 5.9 42.7 72 1.2 34.2
12:25 1013 29.91 842 24.86 5.6 42 72 0.9 33.6
12:30 1013 29.91 842 24.86 5.7 42.2 72 1 33.8
12:35 1013 29.91 843 24.89 5.6 42.1 74 1.4 34.5
12:40 1013 29.91 842 24.86 5.7 42.3 72 1 33.8
12:45 1013 29.91 842 24.86 5.7 42.3 70 0.6 33.1
12:50 1013 29.91 842 24.86 5.5 41.9 77 1.7 35.1
12:55 1013 29.91 842 24.86 5.8 42.4 69 0.6 33.1
13:00 1013 29.91 842 24.86 5.8 42.5 67 0.1 32.2
13:05 1013 29.91 842 24.86 6.1 42.9 69 0.8 33.5
13:10 1013 29.91 842 24.86 6.3 43.3 67 0.7 33.3
13:15 1013 29.91 843 24.89 6.5 43.6 66 0.7 33.2
13:20 1013 29.91 842 24.86 6.6 43.9 65 0.6 33
13:25 1013 29.91 842 24.86 6.7 44 67 1.1 33.9
13:30 1013 29.91 843 24.89 6.5 43.7 65 0.4 32.8
13:35 1013 29.91 843 24.89 6.2 43.1 68 0.6 33.2
13:40 1013 29.91 843 24.89 5.7 42.2 66 -0.1 31.8
13:45 1013 29.91 843 24.89 5.5 42 67 -0 31.9
13:50 1013 29.91 842 24.86 5.8 42.4 64 -0.5 31.1
13:55 1013 29.91 843 24.89 6.1 42.9 65 -0.1 31.8
14:00 1013 29.91 843 24.89 6.6 43.8 63 0.1 32.1
14:05 1013 29.91 843 24.89 6.6 43.9 65 0.4 32.8
14:10 1014 29.94 843 24.89 6.4 43.6 65 0.4 32.8
14:15 1014 29.94 843 24.89 6.3 43.4 66 0.4 32.8
14:20 1014 29.94 843 24.89 6 42.9 69 0.8 33.4
14:25 1014 29.94 843 24.89 5.9 42.7 69 0.7 33.2
14:30 1014 29.94 843 24.89 5.9 42.7 69 0.8 33.4
14:35 1014 29.94 843 24.89 6 42.7 69 0.8 33.4
14:40 1014 29.94 843 24.89 5.9 42.6 69 0.6 33.1
14:45 1014 29.94 843 24.89 5.8 42.4 70 0.8 33.4
14:50 1014 29.94 843 24.89 5.7 42.3 73 1.2 34.2
14:55 1014 29.94 843 24.89 5.7 42.3 74 1.5 34.6
15:00 1014 29.94 843 24.89 5.7 42.2 74 1.4 34.5
15:05 1014 29.94 843 24.89 5.5 41.9 75 1.5 34.6
15:10 1014 29.94 843 24.89 5.4 41.7 77 1.7 35
15:15 1014 29.94 843 24.89 5.4 41.6 76 1.5 34.7
15:20 1014 29.94 843 24.89 5.3 41.5 75 1.3 34.3
15:25 1014 29.94 843 24.89 5.1 41.1 76 1.2 34.2
15:30 1014 29.94 843 24.89 5.2 41.3 76 1.3 34.4
15:35 1014 29.94 843 24.89 5.3 41.5 76 1.4 34.5
15:40 1014 29.94 843 24.89 5.4 41.7 76 1.6 34.8
15:45 1014 29.94 843 24.89 5.4 41.7 74 1 33.9
15:50 1014 29.94 844 24.92 5 41 76 1.1 34
15:55 1014 29.94 844 24.92 4.8 40.7 76 0.9 33.7
16:00 1014 29.94 844 24.92 4.8 40.6 77 1.1 33.9
16:05 1014 29.94 844 24.92 4.7 40.5 76 1 33.7
16:10 1015 29.97 844 24.92 4.5 40.1 80 1.3 34.4
16:15 1015 29.97 844 24.92 4.4 39.9 81 1.5 34.7
16:20 1015 29.97 844 24.92 4.3 39.7 80 1.2 34.2
16:25 1015 29.97 844 24.92 4.3 39.7 81 1.3 34.4
16:30 1015 29.97 844 24.92 4.3 39.7 83 1.6 35
16:35 1015 29.97 844 24.92 4.3 39.7 84 1.9 35.3
16:40 1015 29.97 844 24.92 4.3 39.8 83 1.7 35.1
16:45 1015 29.97 844 24.92 4.2 39.6 84 1.8 35.2
16:50 1015 29.97 844 24.92 4.3 39.7 84 1.9 35.4
16:55 1015 29.97 844 24.92 4.2 39.6 85 2 35.6
17:00 1015 29.97 844 24.92 4.2 39.6 83 1.6 34.9
17:05 1015 29.97 844 24.92 4.2 39.5 84 1.7 35.1
17:10 1015 29.97 844 24.92 4.2 39.6 84 1.7 35.1
17:15 1015 29.97 844 24.92 4.2 39.5 85 1.9 35.4
17:20 1015 29.97 844 24.92 4.1 39.4 85 1.8 35.3
17:25 1015 29.97 844 24.92 4.2 39.5 85 1.9 35.5
17:30 1015 29.97 844 24.92 4.2 39.6 86 2 35.6
17:35 1015 29.97 844 24.92 4.3 39.7 86 2.1 35.8
17:40 1015 29.97 844 24.92 4.2 39.5 84 1.6 34.9
17:45 1015 29.97 844 24.92 3.9 39.1 86 1.8 35.3
17:50 1015 29.97 844 24.92 3.9 39.1 86 1.8 35.3
17:55 1015 29.97 844 24.92 3.7 38.6 86 1.6 34.9
18:00 1015 29.97 844 24.92 3.7 38.7 87 1.7 35.1
18:05 1015 29.97 844 24.92 3.7 38.7 87 1.7 35.1
18:10 1015 29.97 844 24.92 3.6 38.5 87 1.7 35.1
18:15 1015 29.97 844 24.92 3.6 38.5 88 1.8 35.2
18:20 1015 29.97 844 24.92 3.6 38.4 88 1.8 35.2
18:25 1015 29.97 844 24.92 3.6 38.5 88 1.7 35.1
18:30 1015 29.97 844 24.92 3.6 38.5 87 1.7 35.1
18:35 1015 29.97 844 24.92 3.6 38.5 87 1.6 34.9
18:40 1015 29.97 844 24.92 3.6 38.6 88 1.8 35.2
18:45 1015 29.97 844 24.92 3.6 38.4 88 1.7 35.1
18:50 1015 29.97 844 24.92 3.6 38.4 88 1.7 35.1
18:55 1015 29.97 844 24.92 3.6 38.4 87 1.7 35
19:00 1015 29.97 844 24.92 3.5 38.4 88 1.7 35.1
19:05 1015 29.97 844 24.92 3.6 38.5 87 1.6 35
19:10 1015 29.97 844 24.92 3.5 38.4 88 1.7 35
19:15 1015 29.97 844 24.92 3.5 38.3 88 1.7 35.1
19:20 1015 29.97 844 24.92 3.5 38.2 89 1.8 35.2
19:25 1015 29.97 844 24.92 3.4 38.2 89 1.9 35.4
19:30 1015 29.97 844 24.92 3.4 38.1 89 1.8 35.3
19:35 1015 29.97 844 24.92 3.4 38.1 90 1.9 35.4
19:40 1014 29.94 844 24.92 3.4 38.1 90 1.9 35.4
19:45 1014 29.94 844 24.92 3.4 38 90 1.8 35.3
19:50 1014 29.94 844 24.92 3.3 38 90 1.8 35.2
19:55 1015 29.97 844 24.92 3.3 37.9 90 1.8 35.3
20:00 1015 29.97 844 24.92 3.4 38 90 1.9 35.3
20:05 1015 29.97 844 24.92 3.4 38.1 90 1.9 35.4
20:10 1015 29.97 844 24.92 3.4 38.2 88 1.7 35.1
20:15 1014 29.94 844 24.92 3.5 38.2 88 1.7 35.1
20:20 1015 29.97 844 24.92 3.5 38.2 88 1.6 34.9
20:25 1014 29.94 843 24.89 3.5 38.2 89 1.8 35.2
20:30 1014 29.94 843 24.89 3.5 38.3 88 1.7 35
20:35 1014 29.94 843 24.89 3.5 38.3 88 1.7 35
20:40 1014 29.94 844 24.92 3.4 38.1 88 1.7 35
20:45 1014 29.94 843 24.89 3.3 38 89 1.7 35
20:50 1014 29.94 843 24.89 3.3 38 89 1.7 35.1
20:55 1014 29.94 844 24.92 3.3 37.9 89 1.6 34.8
21:00 1014 29.94 844 24.92 3.3 37.9 88 1.5 34.8
21:05 1014 29.94 844 24.92 3.2 37.8 88 1.4 34.5
21:10 1014 29.94 843 24.89 3.2 37.8 86 1.2 34.1
21:15 1014 29.94 844 24.92 3.2 37.8 86 1.1 34
21:20 1014 29.94 843 24.89 3.2 37.8 85 1 33.8
21:25 1014 29.94 843 24.89 3.2 37.8 84 0.9 33.6
21:30 1014 29.94 843 24.89 3.3 37.9 85 0.9 33.7
21:35 1014 29.94 843 24.89 3.2 37.8 85 0.9 33.7
21:40 1014 29.94 843 24.89 3.2 37.8 86 1 33.8
21:45 1014 29.94 843 24.89 3.2 37.7 86 1.1 33.9
21:50 1014 29.94 843 24.89 3.2 37.7 86 1 33.9
21:55 1014 29.94 843 24.89 3.2 37.7 86 1 33.8
22:00 1014 29.94 843 24.89 3.2 37.7 87 1.2 34.1
22:05 1014 29.94 843 24.89 3.1 37.6 86 1.1 33.9
22:10 1014 29.94 843 24.89 3.1 37.6 87 1.1 34
22:15 1014 29.94 843 24.89 3.1 37.5 86 1 33.8
22:20 1014 29.94 843 24.89 3.1 37.5 87 1.1 34
22:25 1014 29.94 843 24.89 3 37.5 87 1 33.9
22:30 1014 29.94 843 24.89 3 37.4 87 1.1 33.9
22:35 1014 29.94 843 24.89 2.9 37.3 87 1 33.9
22:40 1014 29.94 843 24.89 2.9 37.2 87 1 33.8
22:45 1014 29.94 843 24.89 2.8 37 88 1 33.8
22:50 1014 29.94 843 24.89 2.7 36.9 88 0.9 33.6
22:55 1014 29.94 843 24.89 2.7 36.8 88 0.9 33.6
23:00 1014 29.94 843 24.89 2.7 36.8 88 0.9 33.6
23:05 1014 29.94 843 24.89 2.7 36.8 88 1 33.7
23:10 1014 29.94 843 24.89 2.6 36.7 88 0.9 33.5
23:15 1014 29.94 843 24.89 2.6 36.7 88 0.8 33.5
23:20 1014 29.94 843 24.89 2.5 36.6 88 0.8 33.5
23:25 1014 29.94 843 24.89 2.5 36.5 89 0.8 33.5
23:30 1014 29.94 843 24.89 2.5 36.6 89 1 33.7
23:35 1014 29.94 843 24.89 2.7 36.8 90 1.1 34.1
23:40 1014 29.94 843 24.89 2.8 37 90 1.3 34.3
23:45 1014 29.94 843 24.89 2.8 37 90 1.3 34.3
23:50 1014 29.94 843 24.89 2.7 36.9 89 1 33.8
23:55 1014 29.94 843 24.89 2.7 36.8 89 1 33.8
24:00 1014 29.94 843 24.89 2.6 36.7 89 0.9 33.6